sensor_id;sensor_type;location;lat;lon;timestamp;P1;durP1;ratioP1;P2;durP2;ratioP2
78844;SDS011;68195;50.854;2.860;2024-01-15T00:00:43;5.95;;;2.88;;
78844;SDS011;68195;50.854;2.860;2024-01-15T00:03:11;5.07;;;2.58;;
78844;SDS011;68195;50.854;2.860;2024-01-15T00:05:36;4.50;;;2.70;;
78844;SDS011;68195;50.854;2.860;2024-01-15T00:08:02;3.35;;;2.03;;
78844;SDS011;68195;50.854;2.860;2024-01-15T00:10:27;4.13;;;2.13;;
78844;SDS011;68195;50.854;2.860;2024-01-15T00:12:55;4.82;;;2.53;;
78844;SDS011;68195;50.854;2.860;2024-01-15T00:15:23;3.55;;;2.22;;
78844;SDS011;68195;50.854;2.860;2024-01-15T00:17:48;7.00;;;2.25;;
78844;SDS011;68195;50.854;2.860;2024-01-15T00:20:14;4.30;;;2.58;;
78844;SDS011;68195;50.854;2.860;2024-01-15T00:22:44;3.75;;;2.47;;
78844;SDS011;68195;50.854;2.860;2024-01-15T00:25:09;2.88;;;1.80;;
78844;SDS011;68195;50.854;2.860;2024-01-15T00:27:35;4.28;;;2.10;;
78844;SDS011;68195;50.854;2.860;2024-01-15T00:30:02;2.70;;;1.80;;
78844;SDS011;68195;50.854;2.860;2024-01-15T00:32:31;6.05;;;2.10;;
78844;SDS011;68195;50.854;2.860;2024-01-15T00:34:59;3.20;;;2.05;;
78844;SDS011;68195;50.854;2.860;2024-01-15T00:37:24;3.95;;;2.55;;
78844;SDS011;68195;50.854;2.860;2024-01-15T00:39:50;3.70;;;2.30;;
78844;SDS011;68195;50.854;2.860;2024-01-15T00:42:17;3.05;;;1.70;;
78844;SDS011;68195;50.854;2.860;2024-01-15T00:44:45;5.13;;;2.05;;
78844;SDS011;68195;50.854;2.860;2024-01-15T00:47:10;3.40;;;2.22;;
78844;SDS011;68195;50.854;2.860;2024-01-15T00:49:36;3.65;;;1.80;;
78844;SDS011;68195;50.854;2.860;2024-01-15T00:52:01;2.45;;;1.75;;
78844;SDS011;68195;50.854;2.860;2024-01-15T00:54:27;3.45;;;1.88;;
78844;SDS011;68195;50.854;2.860;2024-01-15T00:56:52;5.68;;;2.10;;
78844;SDS011;68195;50.854;2.860;2024-01-15T00:59:17;2.33;;;1.50;;
78844;SDS011;68195;50.854;2.860;2024-01-15T01:01:43;3.33;;;1.70;;
78844;SDS011;68195;50.854;2.860;2024-01-15T01:04:09;3.30;;;1.92;;
78844;SDS011;68195;50.854;2.860;2024-01-15T01:06:38;3.75;;;2.00;;
78844;SDS011;68195;50.854;2.860;2024-01-15T01:09:05;4.35;;;2.00;;
78844;SDS011;68195;50.854;2.860;2024-01-15T01:11:34;3.08;;;1.85;;
78844;SDS011;68195;50.854;2.860;2024-01-15T01:13:59;4.32;;;2.30;;
78844;SDS011;68195;50.854;2.860;2024-01-15T01:16:26;3.95;;;2.03;;
78844;SDS011;68195;50.854;2.860;2024-01-15T01:18:51;5.25;;;2.28;;
78844;SDS011;68195;50.854;2.860;2024-01-15T01:21:17;3.83;;;1.98;;
78844;SDS011;68195;50.854;2.860;2024-01-15T01:23:42;5.43;;;2.25;;
78844;SDS011;68195;50.854;2.860;2024-01-15T01:26:07;3.35;;;2.03;;
78844;SDS011;68195;50.854;2.860;2024-01-15T01:28:33;2.97;;;2.10;;
78844;SDS011;68195;50.854;2.860;2024-01-15T01:30:59;2.88;;;1.98;;
78844;SDS011;68195;50.854;2.860;2024-01-15T01:35:50;8.40;;;2.00;;
78844;SDS011;68195;50.854;2.860;2024-01-15T01:38:15;4.03;;;2.15;;
78844;SDS011;68195;50.854;2.860;2024-01-15T01:40:41;3.22;;;1.98;;
78844;SDS011;68195;50.854;2.860;2024-01-15T01:43:08;3.30;;;2.10;;
78844;SDS011;68195;50.854;2.860;2024-01-15T01:45:35;3.10;;;1.60;;
78844;SDS011;68195;50.854;2.860;2024-01-15T01:48:00;4.43;;;2.22;;
78844;SDS011;68195;50.854;2.860;2024-01-15T01:50:27;6.05;;;2.25;;
78844;SDS011;68195;50.854;2.860;2024-01-15T01:52:54;4.07;;;1.95;;
78844;SDS011;68195;50.854;2.860;2024-01-15T01:55:26;4.03;;;2.10;;
78844;SDS011;68195;50.854;2.860;2024-01-15T01:57:54;4.15;;;2.53;;
78844;SDS011;68195;50.854;2.860;2024-01-15T02:00:23;5.18;;;3.22;;
78844;SDS011;68195;50.854;2.860;2024-01-15T02:02:49;4.57;;;3.60;;
78844;SDS011;68195;50.854;2.860;2024-01-15T02:05:14;4.65;;;2.58;;
78844;SDS011;68195;50.854;2.860;2024-01-15T02:07:45;5.28;;;2.80;;
78844;SDS011;68195;50.854;2.860;2024-01-15T02:10:10;5.57;;;3.05;;
78844;SDS011;68195;50.854;2.860;2024-01-15T02:12:35;3.58;;;2.65;;
78844;SDS011;68195;50.854;2.860;2024-01-15T02:15:03;5.95;;;3.67;;
78844;SDS011;68195;50.854;2.860;2024-01-15T02:17:29;6.55;;;2.85;;
78844;SDS011;68195;50.854;2.860;2024-01-15T02:19:54;4.78;;;2.60;;
78844;SDS011;68195;50.854;2.860;2024-01-15T02:22:20;4.95;;;2.67;;
78844;SDS011;68195;50.854;2.860;2024-01-15T02:24:47;4.03;;;2.50;;
78844;SDS011;68195;50.854;2.860;2024-01-15T02:27:13;4.65;;;2.78;;
78844;SDS011;68195;50.854;2.860;2024-01-15T02:29:39;5.82;;;3.15;;
78844;SDS011;68195;50.854;2.860;2024-01-15T02:32:09;4.00;;;2.63;;
78844;SDS011;68195;50.854;2.860;2024-01-15T02:34:37;4.13;;;2.65;;
78844;SDS011;68195;50.854;2.860;2024-01-15T02:37:02;4.78;;;2.58;;
78844;SDS011;68195;50.854;2.860;2024-01-15T02:39:31;5.05;;;2.70;;
78844;SDS011;68195;50.854;2.860;2024-01-15T02:41:56;7.13;;;2.72;;
78844;SDS011;68195;50.854;2.860;2024-01-15T02:44:22;3.75;;;2.60;;
78844;SDS011;68195;50.854;2.860;2024-01-15T02:46:50;3.80;;;2.58;;
78844;SDS011;68195;50.854;2.860;2024-01-15T02:49:16;2.78;;;1.77;;
78844;SDS011;68195;50.854;2.860;2024-01-15T02:51:43;3.22;;;2.45;;
78844;SDS011;68195;50.854;2.860;2024-01-15T02:54:11;3.88;;;2.30;;
78844;SDS011;68195;50.854;2.860;2024-01-15T02:56:36;5.45;;;2.30;;
78844;SDS011;68195;50.854;2.860;2024-01-15T02:59:02;4.75;;;2.30;;
78844;SDS011;68195;50.854;2.860;2024-01-15T03:01:27;3.40;;;1.92;;
78844;SDS011;68195;50.854;2.860;2024-01-15T03:03:52;3.33;;;2.10;;
78844;SDS011;68195;50.854;2.860;2024-01-15T03:06:20;3.13;;;2.05;;
78844;SDS011;68195;50.854;2.860;2024-01-15T03:08:45;6.28;;;2.25;;
78844;SDS011;68195;50.854;2.860;2024-01-15T03:11:13;4.60;;;2.05;;
78844;SDS011;68195;50.854;2.860;2024-01-15T03:13:38;6.95;;;1.80;;
78844;SDS011;68195;50.854;2.860;2024-01-15T03:16:06;4.03;;;1.73;;
78844;SDS011;68195;50.854;2.860;2024-01-15T03:18:31;3.70;;;1.88;;
78844;SDS011;68195;50.854;2.860;2024-01-15T03:20:57;5.50;;;2.08;;
78844;SDS011;68195;50.854;2.860;2024-01-15T03:23:22;3.33;;;1.98;;
78844;SDS011;68195;50.854;2.860;2024-01-15T03:25:48;3.63;;;1.83;;
78844;SDS011;68195;50.854;2.860;2024-01-15T03:28:14;2.58;;;1.60;;
78844;SDS011;68195;50.854;2.860;2024-01-15T03:30:39;4.30;;;2.10;;
78844;SDS011;68195;50.854;2.860;2024-01-15T03:33:04;3.08;;;1.63;;
78844;SDS011;68195;50.854;2.860;2024-01-15T03:35:30;2.88;;;1.40;;
78844;SDS011;68195;50.854;2.860;2024-01-15T03:37:56;4.97;;;1.23;;
78844;SDS011;68195;50.854;2.860;2024-01-15T03:40:24;3.95;;;1.17;;
78844;SDS011;68195;50.854;2.860;2024-01-15T03:42:53;2.58;;;1.30;;
78844;SDS011;68195;50.854;2.860;2024-01-15T03:45:23;3.47;;;1.38;;
78844;SDS011;68195;50.854;2.860;2024-01-15T03:47:48;3.47;;;1.50;;
78844;SDS011;68195;50.854;2.860;2024-01-15T03:50:16;4.13;;;1.00;;
78844;SDS011;68195;50.854;2.860;2024-01-15T03:52:42;2.53;;;1.50;;
78844;SDS011;68195;50.854;2.860;2024-01-15T03:55:07;4.60;;;1.35;;
78844;SDS011;68195;50.854;2.860;2024-01-15T03:57:35;7.25;;;1.80;;
78844;SDS011;68195;50.854;2.860;2024-01-15T04:00:00;2.67;;;1.20;;
78844;SDS011;68195;50.854;2.860;2024-01-15T04:02:26;3.05;;;1.50;;
78844;SDS011;68195;50.854;2.860;2024-01-15T04:04:58;2.53;;;1.45;;
78844;SDS011;68195;50.854;2.860;2024-01-15T04:07:26;2.50;;;1.23;;
78844;SDS011;68195;50.854;2.860;2024-01-15T04:09:51;5.55;;;1.60;;
78844;SDS011;68195;50.854;2.860;2024-01-15T04:12:17;2.97;;;1.25;;
78844;SDS011;68195;50.854;2.860;2024-01-15T04:14:44;2.28;;;1.48;;
78844;SDS011;68195;50.854;2.860;2024-01-15T04:17:12;3.25;;;1.15;;
78844;SDS011;68195;50.854;2.860;2024-01-15T04:19:43;3.65;;;1.10;;
78844;SDS011;68195;50.854;2.860;2024-01-15T04:22:09;2.47;;;1.05;;
78844;SDS011;68195;50.854;2.860;2024-01-15T04:24:36;2.58;;;1.25;;
78844;SDS011;68195;50.854;2.860;2024-01-15T04:27:04;2.28;;;0.95;;
78844;SDS011;68195;50.854;2.860;2024-01-15T04:29:33;2.15;;;1.45;;
78844;SDS011;68195;50.854;2.860;2024-01-15T04:31:58;2.33;;;1.20;;
78844;SDS011;68195;50.854;2.860;2024-01-15T04:34:23;1.95;;;1.13;;
78844;SDS011;68195;50.854;2.860;2024-01-15T04:36:49;3.63;;;1.42;;
78844;SDS011;68195;50.854;2.860;2024-01-15T04:39:19;5.07;;;1.40;;
78844;SDS011;68195;50.854;2.860;2024-01-15T04:41:44;3.17;;;1.17;;
78844;SDS011;68195;50.854;2.860;2024-01-15T04:44:09;2.67;;;1.20;;
78844;SDS011;68195;50.854;2.860;2024-01-15T04:46:35;1.50;;;0.93;;
78844;SDS011;68195;50.854;2.860;2024-01-15T04:49:00;3.63;;;1.88;;
78844;SDS011;68195;50.854;2.860;2024-01-15T04:51:28;3.88;;;1.23;;
78844;SDS011;68195;50.854;2.860;2024-01-15T04:53:53;3.22;;;1.48;;
78844;SDS011;68195;50.854;2.860;2024-01-15T04:56:18;2.10;;;1.40;;
78844;SDS011;68195;50.854;2.860;2024-01-15T04:58:47;3.72;;;1.20;;
78844;SDS011;68195;50.854;2.860;2024-01-15T05:01:12;4.25;;;2.20;;
78844;SDS011;68195;50.854;2.860;2024-01-15T05:03:37;3.25;;;1.98;;
78844;SDS011;68195;50.854;2.860;2024-01-15T05:06:05;5.35;;;1.67;;
78844;SDS011;68195;50.854;2.860;2024-01-15T05:08:34;2.50;;;1.52;;
78844;SDS011;68195;50.854;2.860;2024-01-15T05:11:01;3.35;;;1.55;;
78844;SDS011;68195;50.854;2.860;2024-01-15T05:13:27;3.80;;;1.33;;
78844;SDS011;68195;50.854;2.860;2024-01-15T05:15:55;2.55;;;1.20;;
78844;SDS011;68195;50.854;2.860;2024-01-15T05:18:20;3.35;;;1.52;;
78844;SDS011;68195;50.854;2.860;2024-01-15T05:20:46;4.22;;;1.60;;
78844;SDS011;68195;50.854;2.860;2024-01-15T05:23:11;3.25;;;1.55;;
78844;SDS011;68195;50.854;2.860;2024-01-15T05:25:37;4.88;;;1.50;;
78844;SDS011;68195;50.854;2.860;2024-01-15T05:28:05;5.50;;;1.80;;
78844;SDS011;68195;50.854;2.860;2024-01-15T05:30:30;2.83;;;1.30;;
78844;SDS011;68195;50.854;2.860;2024-01-15T05:32:56;3.08;;;1.38;;
78844;SDS011;68195;50.854;2.860;2024-01-15T05:35:22;3.58;;;1.65;;
78844;SDS011;68195;50.854;2.860;2024-01-15T05:37:48;4.88;;;1.33;;
78844;SDS011;68195;50.854;2.860;2024-01-15T05:40:13;5.00;;;1.45;;
78844;SDS011;68195;50.854;2.860;2024-01-15T05:42:39;4.03;;;1.65;;
78844;SDS011;68195;50.854;2.860;2024-01-15T05:45:06;7.35;;;1.75;;
78844;SDS011;68195;50.854;2.860;2024-01-15T05:47:36;7.95;;;1.48;;
78844;SDS011;68195;50.854;2.860;2024-01-15T05:50:07;2.03;;;1.42;;
78844;SDS011;68195;50.854;2.860;2024-01-15T05:52:33;7.60;;;1.67;;
78844;SDS011;68195;50.854;2.860;2024-01-15T05:54:59;3.72;;;1.45;;
78844;SDS011;68195;50.854;2.860;2024-01-15T05:57:24;2.15;;;1.38;;
78844;SDS011;68195;50.854;2.860;2024-01-15T05:59:50;3.50;;;1.20;;
78844;SDS011;68195;50.854;2.860;2024-01-15T06:02:17;6.63;;;1.55;;
78844;SDS011;68195;50.854;2.860;2024-01-15T06:04:45;5.35;;;1.65;;
78844;SDS011;68195;50.854;2.860;2024-01-15T06:07:11;5.90;;;1.67;;
78844;SDS011;68195;50.854;2.860;2024-01-15T06:09:36;3.30;;;1.55;;
78844;SDS011;68195;50.854;2.860;2024-01-15T06:12:03;3.55;;;1.42;;
78844;SDS011;68195;50.854;2.860;2024-01-15T06:14:29;5.38;;;1.80;;
78844;SDS011;68195;50.854;2.860;2024-01-15T06:16:57;5.07;;;1.65;;
78844;SDS011;68195;50.854;2.860;2024-01-15T06:19:22;5.82;;;1.80;;
78844;SDS011;68195;50.854;2.860;2024-01-15T06:21:50;2.90;;;1.15;;
78844;SDS011;68195;50.854;2.860;2024-01-15T06:24:19;6.13;;;2.05;;
78844;SDS011;68195;50.854;2.860;2024-01-15T06:26:47;4.47;;;1.40;;
78844;SDS011;68195;50.854;2.860;2024-01-15T06:29:13;3.08;;;1.48;;
78844;SDS011;68195;50.854;2.860;2024-01-15T06:31:41;4.00;;;1.83;;
78844;SDS011;68195;50.854;2.860;2024-01-15T06:34:06;2.45;;;1.42;;
78844;SDS011;68195;50.854;2.860;2024-01-15T06:36:31;3.17;;;1.20;;
78844;SDS011;68195;50.854;2.860;2024-01-15T06:38:57;2.08;;;1.30;;
78844;SDS011;68195;50.854;2.860;2024-01-15T06:41:22;4.35;;;1.08;;
78844;SDS011;68195;50.854;2.860;2024-01-15T06:43:48;4.45;;;1.83;;
78844;SDS011;68195;50.854;2.860;2024-01-15T06:46:20;4.75;;;1.60;;
78844;SDS011;68195;50.854;2.860;2024-01-15T06:48:48;3.85;;;1.10;;
78844;SDS011;68195;50.854;2.860;2024-01-15T06:51:15;3.20;;;1.05;;
78844;SDS011;68195;50.854;2.860;2024-01-15T06:53:41;4.38;;;1.02;;
78844;SDS011;68195;50.854;2.860;2024-01-15T06:56:07;1.88;;;1.38;;
78844;SDS011;68195;50.854;2.860;2024-01-15T06:58:32;2.13;;;1.20;;
78844;SDS011;68195;50.854;2.860;2024-01-15T07:00:58;1.73;;;1.02;;
78844;SDS011;68195;50.854;2.860;2024-01-15T07:03:23;4.93;;;1.48;;
78844;SDS011;68195;50.854;2.860;2024-01-15T07:05:49;6.22;;;1.52;;
78844;SDS011;68195;50.854;2.860;2024-01-15T07:08:16;5.45;;;1.90;;
78844;SDS011;68195;50.854;2.860;2024-01-15T07:10:42;2.38;;;1.20;;
78844;SDS011;68195;50.854;2.860;2024-01-15T07:13:13;2.28;;;1.10;;
78844;SDS011;68195;50.854;2.860;2024-01-15T07:15:41;3.50;;;1.60;;
78844;SDS011;68195;50.854;2.860;2024-01-15T07:18:06;5.15;;;1.45;;
78844;SDS011;68195;50.854;2.860;2024-01-15T07:20:32;4.35;;;1.75;;
78844;SDS011;68195;50.854;2.860;2024-01-15T07:22:57;3.58;;;1.20;;
78844;SDS011;68195;50.854;2.860;2024-01-15T07:25:25;2.35;;;1.40;;
78844;SDS011;68195;50.854;2.860;2024-01-15T07:27:53;3.75;;;1.65;;
78844;SDS011;68195;50.854;2.860;2024-01-15T07:30:21;2.22;;;1.30;;
78844;SDS011;68195;50.854;2.860;2024-01-15T07:32:47;4.70;;;1.80;;
78844;SDS011;68195;50.854;2.860;2024-01-15T07:35:15;2.63;;;1.50;;
78844;SDS011;68195;50.854;2.860;2024-01-15T07:37:43;3.35;;;1.50;;
78844;SDS011;68195;50.854;2.860;2024-01-15T07:40:09;3.80;;;1.70;;
78844;SDS011;68195;50.854;2.860;2024-01-15T07:42:35;6.25;;;2.40;;
78844;SDS011;68195;50.854;2.860;2024-01-15T07:45:04;2.95;;;1.55;;
78844;SDS011;68195;50.854;2.860;2024-01-15T07:49:57;5.93;;;1.83;;
78844;SDS011;68195;50.854;2.860;2024-01-15T07:52:22;2.70;;;1.55;;
78844;SDS011;68195;50.854;2.860;2024-01-15T07:54:48;4.35;;;1.65;;
78844;SDS011;68195;50.854;2.860;2024-01-15T07:57:13;3.67;;;1.80;;
78844;SDS011;68195;50.854;2.860;2024-01-15T07:59:38;3.22;;;1.60;;
78844;SDS011;68195;50.854;2.860;2024-01-15T08:04:30;3.05;;;1.77;;
78844;SDS011;68195;50.854;2.860;2024-01-15T08:06:58;3.17;;;1.75;;
78844;SDS011;68195;50.854;2.860;2024-01-15T08:09:23;4.55;;;2.00;;
78844;SDS011;68195;50.854;2.860;2024-01-15T08:11:51;3.25;;;1.80;;
78844;SDS011;68195;50.854;2.860;2024-01-15T08:14:17;3.83;;;2.10;;
78844;SDS011;68195;50.854;2.860;2024-01-15T08:19:10;5.90;;;2.45;;
78844;SDS011;68195;50.854;2.860;2024-01-15T08:21:35;4.88;;;2.15;;
78844;SDS011;68195;50.854;2.860;2024-01-15T08:24:01;2.88;;;1.52;;
78844;SDS011;68195;50.854;2.860;2024-01-15T08:26:30;4.45;;;1.90;;
78844;SDS011;68195;50.854;2.860;2024-01-15T08:28:57;4.65;;;1.83;;
78844;SDS011;68195;50.854;2.860;2024-01-15T08:31:22;5.13;;;1.92;;
78844;SDS011;68195;50.854;2.860;2024-01-15T08:33:51;7.05;;;1.95;;
78844;SDS011;68195;50.854;2.860;2024-01-15T08:36:16;3.13;;;1.73;;
78844;SDS011;68195;50.854;2.860;2024-01-15T08:38:41;3.97;;;1.80;;
78844;SDS011;68195;50.854;2.860;2024-01-15T08:41:09;4.13;;;1.98;;
78844;SDS011;68195;50.854;2.860;2024-01-15T08:43:35;6.90;;;2.22;;
78844;SDS011;68195;50.854;2.860;2024-01-15T08:46:00;3.55;;;1.60;;
78844;SDS011;68195;50.854;2.860;2024-01-15T08:48:28;4.78;;;1.75;;
78844;SDS011;68195;50.854;2.860;2024-01-15T08:50:54;5.65;;;1.88;;
78844;SDS011;68195;50.854;2.860;2024-01-15T08:53:21;4.32;;;1.88;;
78844;SDS011;68195;50.854;2.860;2024-01-15T08:55:47;3.95;;;1.40;;
78844;SDS011;68195;50.854;2.860;2024-01-15T08:58:13;4.55;;;1.85;;
78844;SDS011;68195;50.854;2.860;2024-01-15T09:00:38;3.78;;;1.38;;
78844;SDS011;68195;50.854;2.860;2024-01-15T09:03:04;5.75;;;1.83;;
78844;SDS011;68195;50.854;2.860;2024-01-15T09:05:29;5.00;;;2.25;;
78844;SDS011;68195;50.854;2.860;2024-01-15T09:07:55;3.17;;;1.65;;
78844;SDS011;68195;50.854;2.860;2024-01-15T09:10:21;4.78;;;2.30;;
78844;SDS011;68195;50.854;2.860;2024-01-15T09:12:46;3.25;;;1.83;;
78844;SDS011;68195;50.854;2.860;2024-01-15T09:15:12;4.72;;;2.13;;
78844;SDS011;68195;50.854;2.860;2024-01-15T09:17:38;5.13;;;1.50;;
78844;SDS011;68195;50.854;2.860;2024-01-15T09:20:03;5.55;;;1.90;;
78844;SDS011;68195;50.854;2.860;2024-01-15T09:22:30;3.22;;;1.00;;
78844;SDS011;68195;50.854;2.860;2024-01-15T09:25:01;3.38;;;0.70;;
78844;SDS011;68195;50.854;2.860;2024-01-15T09:27:29;2.30;;;0.70;;
78844;SDS011;68195;50.854;2.860;2024-01-15T09:29:54;5.82;;;0.73;;
78844;SDS011;68195;50.854;2.860;2024-01-15T09:32:22;2.38;;;0.70;;
78844;SDS011;68195;50.854;2.860;2024-01-15T09:34:48;2.88;;;0.50;;
78844;SDS011;68195;50.854;2.860;2024-01-15T09:37:14;5.28;;;0.85;;
78844;SDS011;68195;50.854;2.860;2024-01-15T09:39:40;1.00;;;0.50;;
78844;SDS011;68195;50.854;2.860;2024-01-15T09:42:08;2.95;;;1.10;;
78844;SDS011;68195;50.854;2.860;2024-01-15T09:44:35;1.23;;;0.70;;
78844;SDS011;68195;50.854;2.860;2024-01-15T09:47:04;3.25;;;1.23;;
78844;SDS011;68195;50.854;2.860;2024-01-15T09:49:30;1.70;;;0.60;;
78844;SDS011;68195;50.854;2.860;2024-01-15T09:51:56;2.53;;;0.80;;
78844;SDS011;68195;50.854;2.860;2024-01-15T09:54:23;8.15;;;1.08;;
78844;SDS011;68195;50.854;2.860;2024-01-15T09:56:51;4.25;;;1.13;;
78844;SDS011;68195;50.854;2.860;2024-01-15T09:59:16;3.70;;;0.95;;
78844;SDS011;68195;50.854;2.860;2024-01-15T10:01:44;3.30;;;0.80;;
78844;SDS011;68195;50.854;2.860;2024-01-15T10:04:13;4.70;;;0.98;;
78844;SDS011;68195;50.854;2.860;2024-01-15T10:06:41;4.78;;;1.13;;
78844;SDS011;68195;50.854;2.860;2024-01-15T10:11:42;4.70;;;1.13;;
78844;SDS011;68195;50.854;2.860;2024-01-15T10:14:09;6.00;;;1.25;;
78844;SDS011;68195;50.854;2.860;2024-01-15T10:16:39;1.90;;;1.10;;
78844;SDS011;68195;50.854;2.860;2024-01-15T10:19:05;6.07;;;0.95;;
78844;SDS011;68195;50.854;2.860;2024-01-15T10:21:34;1.88;;;0.68;;
78844;SDS011;68195;50.854;2.860;2024-01-15T10:24:01;3.97;;;0.88;;
78844;SDS011;68195;50.854;2.860;2024-01-15T10:26:27;3.33;;;0.90;;
78844;SDS011;68195;50.854;2.860;2024-01-15T10:28:53;2.20;;;0.77;;
78844;SDS011;68195;50.854;2.860;2024-01-15T10:31:21;3.17;;;0.98;;
78844;SDS011;68195;50.854;2.860;2024-01-15T10:33:49;3.17;;;0.90;;
78844;SDS011;68195;50.854;2.860;2024-01-15T10:36:15;1.60;;;0.70;;
78844;SDS011;68195;50.854;2.860;2024-01-15T10:38:45;1.00;;;0.73;;
78844;SDS011;68195;50.854;2.860;2024-01-15T10:41:11;3.83;;;0.73;;
78844;SDS011;68195;50.854;2.860;2024-01-15T10:43:37;1.88;;;0.90;;
78844;SDS011;68195;50.854;2.860;2024-01-15T10:46:03;5.05;;;0.93;;
78844;SDS011;68195;50.854;2.860;2024-01-15T10:48:29;3.30;;;0.90;;
78844;SDS011;68195;50.854;2.860;2024-01-15T10:50:59;0.80;;;0.50;;
78844;SDS011;68195;50.854;2.860;2024-01-15T10:53:25;3.15;;;0.82;;
78844;SDS011;68195;50.854;2.860;2024-01-15T10:55:52;3.67;;;1.25;;
78844;SDS011;68195;50.854;2.860;2024-01-15T10:58:18;3.13;;;0.50;;
78844;SDS011;68195;50.854;2.860;2024-01-15T11:00:47;2.45;;;0.70;;
78844;SDS011;68195;50.854;2.860;2024-01-15T11:03:12;1.77;;;0.68;;
78844;SDS011;68195;50.854;2.860;2024-01-15T11:05:40;3.90;;;1.08;;
78844;SDS011;68195;50.854;2.860;2024-01-15T11:08:07;2.53;;;1.05;;
78844;SDS011;68195;50.854;2.860;2024-01-15T11:10:40;4.38;;;1.10;;
78844;SDS011;68195;50.854;2.860;2024-01-15T11:13:13;2.95;;;0.50;;
78844;SDS011;68195;50.854;2.860;2024-01-15T11:16:10;2.30;;;1.17;;
78844;SDS011;68195;50.854;2.860;2024-01-15T11:23:45;5.35;;;1.40;;
78844;SDS011;68195;50.854;2.860;2024-01-15T11:34:21;2.73;;;0.80;;
78844;SDS011;68195;50.854;2.860;2024-01-15T11:37:06;1.92;;;0.77;;
78844;SDS011;68195;50.854;2.860;2024-01-15T11:42:01;2.97;;;1.08;;
78844;SDS011;68195;50.854;2.860;2024-01-15T11:44:32;7.85;;;1.75;;
78844;SDS011;68195;50.854;2.860;2024-01-15T11:47:01;3.75;;;0.98;;
78844;SDS011;68195;50.854;2.860;2024-01-15T11:52:11;4.65;;;1.05;;
78844;SDS011;68195;50.854;2.860;2024-01-15T11:54:39;3.13;;;1.42;;
78844;SDS011;68195;50.854;2.860;2024-01-15T11:57:51;4.13;;;0.98;;
78844;SDS011;68195;50.854;2.860;2024-01-15T12:00:16;4.25;;;1.13;;
78844;SDS011;68195;50.854;2.860;2024-01-15T12:02:42;3.58;;;1.00;;
78844;SDS011;68195;50.854;2.860;2024-01-15T12:05:12;5.95;;;1.20;;
78844;SDS011;68195;50.854;2.860;2024-01-15T12:07:43;3.40;;;0.70;;
78844;SDS011;68195;50.854;2.860;2024-01-15T12:10:14;7.65;;;1.52;;
78844;SDS011;68195;50.854;2.860;2024-01-15T12:13:04;3.25;;;0.80;;
78844;SDS011;68195;50.854;2.860;2024-01-15T12:15:33;3.78;;;1.25;;
78844;SDS011;68195;50.854;2.860;2024-01-15T12:17:59;4.10;;;1.23;;
78844;SDS011;68195;50.854;2.860;2024-01-15T12:20:29;5.82;;;1.15;;
78844;SDS011;68195;50.854;2.860;2024-01-15T12:23:01;3.92;;;1.00;;
78844;SDS011;68195;50.854;2.860;2024-01-15T12:25:31;6.40;;;1.38;;
78844;SDS011;68195;50.854;2.860;2024-01-15T12:27:59;6.97;;;1.92;;
78844;SDS011;68195;50.854;2.860;2024-01-15T12:30:26;4.25;;;1.48;;
78844;SDS011;68195;50.854;2.860;2024-01-15T12:32:56;2.97;;;0.93;;
78844;SDS011;68195;50.854;2.860;2024-01-15T12:35:28;2.50;;;1.00;;
78844;SDS011;68195;50.854;2.860;2024-01-15T12:37:56;4.63;;;1.08;;
78844;SDS011;68195;50.854;2.860;2024-01-15T12:40:22;0.95;;;0.70;;
78844;SDS011;68195;50.854;2.860;2024-01-15T12:42:48;4.03;;;1.23;;
78844;SDS011;68195;50.854;2.860;2024-01-15T12:45:18;2.08;;;1.42;;
78844;SDS011;68195;50.854;2.860;2024-01-15T12:47:43;2.05;;;1.00;;
78844;SDS011;68195;50.854;2.860;2024-01-15T12:50:09;3.45;;;0.85;;
78844;SDS011;68195;50.854;2.860;2024-01-15T12:52:35;2.65;;;1.10;;
78844;SDS011;68195;50.854;2.860;2024-01-15T12:55:03;7.05;;;1.52;;
78844;SDS011;68195;50.854;2.860;2024-01-15T12:57:32;2.30;;;1.17;;
78844;SDS011;68195;50.854;2.860;2024-01-15T12:59:59;5.80;;;1.20;;
78844;SDS011;68195;50.854;2.860;2024-01-15T13:02:24;6.60;;;1.50;;
78844;SDS011;68195;50.854;2.860;2024-01-15T13:04:50;2.28;;;0.90;;
78844;SDS011;68195;50.854;2.860;2024-01-15T13:07:16;2.63;;;0.90;;
78844;SDS011;68195;50.854;2.860;2024-01-15T13:09:41;7.85;;;1.10;;
78844;SDS011;68195;50.854;2.860;2024-01-15T13:12:08;2.60;;;1.40;;
78844;SDS011;68195;50.854;2.860;2024-01-15T13:14:36;4.38;;;1.67;;
78844;SDS011;68195;50.854;2.860;2024-01-15T13:17:01;2.33;;;1.27;;
78844;SDS011;68195;50.854;2.860;2024-01-15T13:19:29;3.45;;;1.50;;
78844;SDS011;68195;50.854;2.860;2024-01-15T13:21:59;4.97;;;1.10;;
78844;SDS011;68195;50.854;2.860;2024-01-15T13:24:27;6.22;;;1.40;;
78844;SDS011;68195;50.854;2.860;2024-01-15T13:26:53;5.68;;;1.52;;
78844;SDS011;68195;50.854;2.860;2024-01-15T13:29:18;2.05;;;0.95;;
78844;SDS011;68195;50.854;2.860;2024-01-15T13:31:46;4.93;;;0.95;;
78844;SDS011;68195;50.854;2.860;2024-01-15T13:34:11;3.15;;;1.08;;
78844;SDS011;68195;50.854;2.860;2024-01-15T13:36:37;6.38;;;1.27;;
78844;SDS011;68195;50.854;2.860;2024-01-15T13:39:06;3.90;;;1.02;;
78844;SDS011;68195;50.854;2.860;2024-01-15T13:41:34;6.90;;;1.42;;
78844;SDS011;68195;50.854;2.860;2024-01-15T13:44:02;4.35;;;1.27;;
78844;SDS011;68195;50.854;2.860;2024-01-15T13:46:28;3.88;;;0.80;;
78844;SDS011;68195;50.854;2.860;2024-01-15T13:48:54;4.78;;;0.82;;
78844;SDS011;68195;50.854;2.860;2024-01-15T13:51:22;1.90;;;1.10;;
78844;SDS011;68195;50.854;2.860;2024-01-15T13:53:50;2.80;;;0.93;;
78844;SDS011;68195;50.854;2.860;2024-01-15T13:56:18;6.32;;;1.63;;
78844;SDS011;68195;50.854;2.860;2024-01-15T13:58:44;9.57;;;1.30;;
78844;SDS011;68195;50.854;2.860;2024-01-15T14:01:15;5.47;;;1.30;;
78844;SDS011;68195;50.854;2.860;2024-01-15T14:03:42;3.38;;;1.10;;
78844;SDS011;68195;50.854;2.860;2024-01-15T14:06:08;2.42;;;1.00;;
78844;SDS011;68195;50.854;2.860;2024-01-15T14:08:34;4.82;;;0.93;;
78844;SDS011;68195;50.854;2.860;2024-01-15T14:11:06;3.67;;;1.10;;
78844;SDS011;68195;50.854;2.860;2024-01-15T14:13:32;3.88;;;1.27;;
78844;SDS011;68195;50.854;2.860;2024-01-15T14:16:00;3.03;;;1.33;;
78844;SDS011;68195;50.854;2.860;2024-01-15T14:18:26;5.15;;;1.08;;
78844;SDS011;68195;50.854;2.860;2024-01-15T14:20:56;6.72;;;1.48;;
78844;SDS011;68195;50.854;2.860;2024-01-15T14:23:24;1.90;;;1.17;;
78844;SDS011;68195;50.854;2.860;2024-01-15T14:25:49;3.47;;;0.90;;
78844;SDS011;68195;50.854;2.860;2024-01-15T14:28:17;3.38;;;0.90;;
78844;SDS011;68195;50.854;2.860;2024-01-15T14:30:45;4.75;;;1.63;;
78844;SDS011;68195;50.854;2.860;2024-01-15T14:33:15;5.97;;;1.65;;
78844;SDS011;68195;50.854;2.860;2024-01-15T14:35:41;2.83;;;1.27;;
78844;SDS011;68195;50.854;2.860;2024-01-15T14:38:06;5.57;;;1.27;;
78844;SDS011;68195;50.854;2.860;2024-01-15T14:40:34;2.80;;;1.17;;
78844;SDS011;68195;50.854;2.860;2024-01-15T14:43:02;3.83;;;1.73;;
78844;SDS011;68195;50.854;2.860;2024-01-15T14:45:28;4.40;;;1.35;;
78844;SDS011;68195;50.854;2.860;2024-01-15T14:47:55;6.28;;;1.63;;
78844;SDS011;68195;50.854;2.860;2024-01-15T14:50:24;3.88;;;1.45;;
78844;SDS011;68195;50.854;2.860;2024-01-15T14:52:52;5.68;;;1.10;;
78844;SDS011;68195;50.854;2.860;2024-01-15T14:55:22;4.55;;;1.30;;
78844;SDS011;68195;50.854;2.860;2024-01-15T14:57:50;3.10;;;1.00;;
78844;SDS011;68195;50.854;2.860;2024-01-15T15:00:23;3.75;;;1.65;;
78844;SDS011;68195;50.854;2.860;2024-01-15T15:02:50;5.50;;;1.30;;
78844;SDS011;68195;50.854;2.860;2024-01-15T15:05:16;3.30;;;1.10;;
78844;SDS011;68195;50.854;2.860;2024-01-15T15:07:45;8.25;;;1.90;;
78844;SDS011;68195;50.854;2.860;2024-01-15T15:10:10;3.78;;;0.95;;
78844;SDS011;68195;50.854;2.860;2024-01-15T15:12:38;4.13;;;1.08;;
78844;SDS011;68195;50.854;2.860;2024-01-15T15:15:04;3.85;;;1.48;;
78844;SDS011;68195;50.854;2.860;2024-01-15T15:17:29;3.80;;;1.15;;